sensor_id;sensor_type;location;lat;lon;timestamp;pressure;altitude;pressure_sealevel;temperature
72278;BMP280;61204;49.980;8.358;2022-07-11T00:02:12;101390.59;;;22.38
72278;BMP280;61204;49.980;8.358;2022-07-11T00:04:41;101395.47;;;22.38
72278;BMP280;61204;49.980;8.358;2022-07-11T00:07:08;101393.28;;;22.34
72278;BMP280;61204;49.980;8.358;2022-07-11T00:09:34;101400.22;;;22.33
72278;BMP280;61204;49.980;8.358;2022-07-11T00:12:01;101391.09;;;22.33
72278;BMP280;61204;49.980;8.358;2022-07-11T00:14:27;101390.34;;;22.30
72278;BMP280;61204;49.980;8.358;2022-07-11T00:16:53;101390.34;;;22.30
72278;BMP280;61204;49.980;8.358;2022-07-11T00:19:20;101393.13;;;22.30
72278;BMP280;61204;49.980;8.358;2022-07-11T00:21:47;101393.84;;;22.31
72278;BMP280;61204;49.980;8.358;2022-07-11T00:24:15;101386.16;;;22.31
72278;BMP280;61204;49.980;8.358;2022-07-11T00:26:43;101388.81;;;22.27
72278;BMP280;61204;49.980;8.358;2022-07-11T00:29:09;101382.59;;;22.29
72278;BMP280;61204;49.980;8.358;2022-07-11T00:31:34;101383.22;;;22.27
72278;BMP280;61204;49.980;8.358;2022-07-11T00:34:00;101377.66;;;22.27
72278;BMP280;61204;49.980;8.358;2022-07-11T00:36:26;101376.25;;;22.26
72278;BMP280;61204;49.980;8.358;2022-07-11T00:38:51;101379.03;;;22.26
72278;BMP280;61204;49.980;8.358;2022-07-11T00:41:20;101373.50;;;22.28
72278;BMP280;61204;49.980;8.358;2022-07-11T00:43:54;101368.00;;;22.30
72278;BMP280;61204;49.980;8.358;2022-07-11T00:46:24;101368.00;;;22.30
72278;BMP280;61204;49.980;8.358;2022-07-11T00:48:52;101366.59;;;22.31
72278;BMP280;61204;49.980;8.358;2022-07-11T00:51:19;101370.13;;;22.32
72278;BMP280;61204;49.980;8.358;2022-07-11T00:53:48;101363.91;;;22.33
72278;BMP280;61204;49.980;8.358;2022-07-11T00:56:41;101359.75;;;22.34
72278;BMP280;61204;49.980;8.358;2022-07-11T00:59:08;101361.81;;;22.34
72278;BMP280;61204;49.980;8.358;2022-07-11T01:01:37;101361.09;;;22.33
72278;BMP280;61204;49.980;8.358;2022-07-11T01:04:03;101359.06;;;22.36
72278;BMP280;61204;49.980;8.358;2022-07-11T01:06:29;101354.88;;;22.35
72278;BMP280;61204;49.980;8.358;2022-07-11T01:08:55;101345.06;;;22.34
72278;BMP280;61204;49.980;8.358;2022-07-11T01:11:21;101350.66;;;22.34
72278;BMP280;61204;49.980;8.358;2022-07-11T01:13:47;101342.28;;;22.34
72278;BMP280;61204;49.980;8.358;2022-07-11T01:16:18;101352.72;;;22.33
72278;BMP280;61204;49.980;8.358;2022-07-11T01:18:52;101346.50;;;22.35
72278;BMP280;61204;49.980;8.358;2022-07-11T01:21:36;101344.47;;;22.37
72278;BMP280;61204;49.980;8.358;2022-07-11T01:24:08;101343.16;;;22.40
72278;BMP280;61204;49.980;8.358;2022-07-11T01:26:34;101337.63;;;22.42
72278;BMP280;61204;49.980;8.358;2022-07-11T01:29:09;101337.63;;;22.42
72278;BMP280;61204;49.980;8.358;2022-07-11T01:31:40;101340.50;;;22.44
72278;BMP280;61204;49.980;8.358;2022-07-11T01:34:07;101329.31;;;22.44
72278;BMP280;61204;49.980;8.358;2022-07-11T01:36:34;101327.97;;;22.45
72278;BMP280;61204;49.980;8.358;2022-07-11T01:39:00;101332.84;;;22.45
72278;BMP280;61204;49.980;8.358;2022-07-11T01:41:25;101327.97;;;22.45
72278;BMP280;61204;49.980;8.358;2022-07-11T01:43:52;101332.13;;;22.44
72278;BMP280;61204;49.980;8.358;2022-07-11T01:46:18;101324.38;;;22.43
72278;BMP280;61204;49.980;8.358;2022-07-11T01:48:44;101327.84;;;22.41
72278;BMP280;61204;49.980;8.358;2022-07-11T01:51:13;101327.84;;;22.41
72278;BMP280;61204;49.980;8.358;2022-07-11T01:53:39;101327.03;;;22.39
72278;BMP280;61204;49.980;8.358;2022-07-11T01:56:05;101326.34;;;22.38
72278;BMP280;61204;49.980;8.358;2022-07-11T01:58:31;101324.81;;;22.35
72278;BMP280;61204;49.980;8.358;2022-07-11T02:00:58;101326.25;;;22.36
72278;BMP280;61204;49.980;8.358;2022-07-11T02:03:23;101316.53;;;22.37
72278;BMP280;61204;49.980;8.358;2022-07-11T02:05:49;101320.03;;;22.38
72278;BMP280;61204;49.980;8.358;2022-07-11T02:08:15;101319.25;;;22.35
72278;BMP280;61204;49.980;8.358;2022-07-11T02:10:47;101326.25;;;22.36
72278;BMP280;61204;49.980;8.358;2022-07-11T02:13:18;101316.53;;;22.37
72278;BMP280;61204;49.980;8.358;2022-07-11T02:15:46;101320.66;;;22.36
72278;BMP280;61204;49.980;8.358;2022-07-11T02:18:14;101320.66;;;22.36
72278;BMP280;61204;49.980;8.358;2022-07-11T02:20:44;101318.56;;;22.35
72278;BMP280;61204;49.980;8.358;2022-07-11T02:23:17;101319.34;;;22.37
72278;BMP280;61204;49.980;8.358;2022-07-11T02:25:44;101315.81;;;22.37
72278;BMP280;61204;49.980;8.358;2022-07-11T02:28:10;101315.16;;;22.38
72278;BMP280;61204;49.980;8.358;2022-07-11T02:30:40;101313.06;;;22.39
72278;BMP280;61204;49.980;8.358;2022-07-11T02:33:08;101315.16;;;22.38
72278;BMP280;61204;49.980;8.358;2022-07-11T02:35:39;101314.47;;;22.38
72278;BMP280;61204;49.980;8.358;2022-07-11T02:38:04;101310.97;;;22.39
72278;BMP280;61204;49.980;8.358;2022-07-11T02:40:30;101309.50;;;22.36
72278;BMP280;61204;49.980;8.358;2022-07-11T02:42:55;101307.44;;;22.37
72278;BMP280;61204;49.980;8.358;2022-07-11T02:45:21;101308.16;;;22.37
72278;BMP280;61204;49.980;8.358;2022-07-11T02:47:47;101306.69;;;22.36
72278;BMP280;61204;49.980;8.358;2022-07-11T02:50:14;101307.44;;;22.37
72278;BMP280;61204;49.980;8.358;2022-07-11T02:52:41;101313.75;;;22.37
72278;BMP280;61204;49.980;8.358;2022-07-11T02:55:09;101303.28;;;22.38
72278;BMP280;61204;49.980;8.358;2022-07-11T02:57:36;101297.69;;;22.38
72278;BMP280;61204;49.980;8.358;2022-07-11T03:00:12;101305.97;;;22.36
72278;BMP280;61204;49.980;8.358;2022-07-11T03:02:41;101316.44;;;22.35
72278;BMP280;61204;49.980;8.358;2022-07-11T03:05:08;101313.75;;;22.37
72278;BMP280;61204;49.980;8.358;2022-07-11T03:07:35;101315.81;;;22.37
72278;BMP280;61204;49.980;8.358;2022-07-11T03:10:00;101312.28;;;22.36
72278;BMP280;61204;49.980;8.358;2022-07-11T03:12:26;101314.38;;;22.36
72278;BMP280;61204;49.980;8.358;2022-07-11T03:14:52;101309.50;;;22.36
72278;BMP280;61204;49.980;8.358;2022-07-11T03:17:18;101315.03;;;22.34
72278;BMP280;61204;49.980;8.358;2022-07-11T03:19:45;101314.34;;;22.34
72278;BMP280;61204;49.980;8.358;2022-07-11T03:22:12;101310.81;;;22.33
72278;BMP280;61204;49.980;8.358;2022-07-11T03:24:38;101309.47;;;22.34
72278;BMP280;61204;49.980;8.358;2022-07-11T03:27:06;101313.63;;;22.33
72278;BMP280;61204;49.980;8.358;2022-07-11T03:29:32;101309.47;;;22.34
72278;BMP280;61204;49.980;8.358;2022-07-11T03:31:58;101314.94;;;22.32
72278;BMP280;61204;49.980;8.358;2022-07-11T03:34:25;101310.16;;;22.35
72278;BMP280;61204;49.980;8.358;2022-07-11T03:36:50;101312.25;;;22.34
72278;BMP280;61204;49.980;8.358;2022-07-11T03:39:16;101312.25;;;22.34
72278;BMP280;61204;49.980;8.358;2022-07-11T03:41:42;101308.78;;;22.36
72278;BMP280;61204;49.980;8.358;2022-07-11T03:44:08;101314.38;;;22.36
72278;BMP280;61204;49.980;8.358;2022-07-11T03:46:36;101316.41;;;22.33
72278;BMP280;61204;49.980;8.358;2022-07-11T03:49:02;101311.56;;;22.36
72278;BMP280;61204;49.980;8.358;2022-07-11T03:51:28;101317.16;;;22.36
72278;BMP280;61204;49.980;8.358;2022-07-11T03:53:53;101317.88;;;22.36
72278;BMP280;61204;49.980;8.358;2022-07-11T03:56:19;101310.84;;;22.35
72278;BMP280;61204;49.980;8.358;2022-07-11T03:58:50;101314.34;;;22.34
72278;BMP280;61204;49.980;8.358;2022-07-11T04:01:17;101305.34;;;22.37
72278;BMP280;61204;49.980;8.358;2022-07-11T04:03:46;101309.59;;;22.38
72278;BMP280;61204;49.980;8.358;2022-07-11T04:06:13;101308.16;;;22.37
72278;BMP280;61204;49.980;8.358;2022-07-11T04:08:41;101297.59;;;22.36
72278;BMP280;61204;49.980;8.358;2022-07-11T04:11:07;101300.97;;;22.32
72278;BMP280;61204;49.980;8.358;2022-07-11T04:13:33;101300.28;;;22.32
72278;BMP280;61204;49.980;8.358;2022-07-11T04:15:59;101294.78;;;22.34
72278;BMP280;61204;49.980;8.358;2022-07-11T04:18:24;101300.22;;;22.30
72278;BMP280;61204;49.980;8.358;2022-07-11T04:20:52;101296.06;;;22.31
72278;BMP280;61204;49.980;8.358;2022-07-11T04:23:18;101296.72;;;22.29
72278;BMP280;61204;49.980;8.358;2022-07-11T04:25:43;101299.66;;;22.33
72278;BMP280;61204;49.980;8.358;2022-07-11T04:28:09;101292.69;;;22.34
72278;BMP280;61204;49.980;8.358;2022-07-11T04:30:35;101299.00;;;22.35
72278;BMP280;61204;49.980;8.358;2022-07-11T04:33:01;101297.56;;;22.34
72278;BMP280;61204;49.980;8.358;2022-07-11T04:35:27;101297.56;;;22.34
72278;BMP280;61204;49.980;8.358;2022-07-11T04:37:54;101292.69;;;22.34
72278;BMP280;61204;49.980;8.358;2022-07-11T04:40:20;101298.91;;;22.33
72278;BMP280;61204;49.980;8.358;2022-07-11T04:42:49;101297.47;;;22.32
72278;BMP280;61204;49.980;8.358;2022-07-11T04:45:16;101289.81;;;22.32
72278;BMP280;61204;49.980;8.358;2022-07-11T04:47:41;101295.47;;;22.34
72278;BMP280;61204;49.980;8.358;2022-07-11T04:50:08;101295.47;;;22.34
72278;BMP280;61204;49.980;8.358;2022-07-11T04:52:34;101295.53;;;22.36
72278;BMP280;61204;49.980;8.358;2022-07-11T04:55:00;101295.53;;;22.36
72278;BMP280;61204;49.980;8.358;2022-07-11T04:57:26;101304.00;;;22.38
72278;BMP280;61204;49.980;8.358;2022-07-11T04:59:52;101302.56;;;22.37
72278;BMP280;61204;49.980;8.358;2022-07-11T05:02:18;101304.69;;;22.39
72278;BMP280;61204;49.980;8.358;2022-07-11T05:04:44;101307.56;;;22.41
72278;BMP280;61204;49.980;8.358;2022-07-11T05:07:10;101314.00;;;22.45
72278;BMP280;61204;49.980;8.358;2022-07-11T05:09:39;101305.72;;;22.49
72278;BMP280;61204;49.980;8.358;2022-07-11T05:12:06;101315.63;;;22.55
72278;BMP280;61204;49.980;8.358;2022-07-11T05:14:35;101313.66;;;22.57
72278;BMP280;61204;49.980;8.358;2022-07-11T05:17:01;101312.25;;;22.58
72278;BMP280;61204;49.980;8.358;2022-07-11T05:19:26;101308.09;;;22.59
72278;BMP280;61204;49.980;8.358;2022-07-11T05:21:54;101322.06;;;22.59
72278;BMP280;61204;49.980;8.358;2022-07-11T05:24:20;101315.88;;;22.63
72278;BMP280;61204;49.980;8.358;2022-07-11T05:26:45;101316.75;;;22.67
72278;BMP280;61204;49.980;8.358;2022-07-11T05:29:12;101323.78;;;22.70
72278;BMP280;61204;49.980;8.358;2022-07-11T05:31:37;101335.84;;;22.75
72278;BMP280;61204;49.980;8.358;2022-07-11T05:34:03;101328.91;;;22.78
72278;BMP280;61204;49.980;8.358;2022-07-11T05:36:28;101336.69;;;22.79
72278;BMP280;61204;49.980;8.358;2022-07-11T05:38:54;101338.16;;;22.82
72278;BMP280;61204;49.980;8.358;2022-07-11T05:41:20;101347.88;;;22.81
72278;BMP280;61204;49.980;8.358;2022-07-11T05:43:45;101339.38;;;22.77
72278;BMP280;61204;49.980;8.358;2022-07-11T05:46:11;101337.38;;;22.80
72278;BMP280;61204;49.980;8.358;2022-07-11T05:48:36;101340.69;;;22.74
72278;BMP280;61204;49.980;8.358;2022-07-11T05:51:02;101341.97;;;22.69
72278;BMP280;61204;49.980;8.358;2022-07-11T05:53:28;101348.22;;;22.68
72278;BMP280;61204;49.980;8.358;2022-07-11T05:55:53;101339.81;;;22.68
72278;BMP280;61204;49.980;8.358;2022-07-11T05:58:19;101343.91;;;22.65
72278;BMP280;61204;49.980;8.358;2022-07-11T06:00:44;101348.72;;;22.62
72278;BMP280;61204;49.980;8.358;2022-07-11T06:03:12;101345.16;;;22.60
72278;BMP280;61204;49.980;8.358;2022-07-11T06:05:38;101338.81;;;22.57
72278;BMP280;61204;49.980;8.358;2022-07-11T06:08:03;101333.91;;;22.58
72278;BMP280;61204;49.980;8.358;2022-07-11T06:10:48;101336.00;;;22.57
72278;BMP280;61204;49.980;8.358;2022-07-11T06:13:13;101339.44;;;22.56
72278;BMP280;61204;49.980;8.358;2022-07-11T06:15:39;101333.22;;;22.57
72278;BMP280;61204;49.980;8.358;2022-07-11T06:18:05;101343.59;;;22.55
72278;BMP280;61204;49.980;8.358;2022-07-11T06:20:33;101339.44;;;22.56
72278;BMP280;61204;49.980;8.358;2022-07-11T06:22:58;101336.59;;;22.54
72278;BMP280;61204;49.980;8.358;2022-07-11T06:25:24;101335.06;;;22.50
72278;BMP280;61204;49.980;8.358;2022-07-11T06:27:50;101328.69;;;22.46
72278;BMP280;61204;49.980;8.358;2022-07-11T06:30:15;101328.59;;;22.44
72278;BMP280;61204;49.980;8.358;2022-07-11T06:32:41;101333.47;;;22.43
72278;BMP280;61204;49.980;8.358;2022-07-11T06:35:07;101333.41;;;22.41
72278;BMP280;61204;49.980;8.358;2022-07-11T06:37:33;101330.53;;;22.39
72278;BMP280;61204;49.980;8.358;2022-07-11T06:40:01;101340.41;;;22.42
72278;BMP280;61204;49.980;8.358;2022-07-11T06:42:27;101329.31;;;22.44
72278;BMP280;61204;49.980;8.358;2022-07-11T06:44:53;101327.38;;;22.49
72278;BMP280;61204;49.980;8.358;2022-07-11T06:47:21;101333.69;;;22.49
72278;BMP280;61204;49.980;8.358;2022-07-11T06:49:46;101332.28;;;22.50
72278;BMP280;61204;49.980;8.358;2022-07-11T06:52:12;101327.50;;;22.53
72278;BMP280;61204;49.980;8.358;2022-07-11T06:54:37;101334.44;;;22.52
72278;BMP280;61204;49.980;8.358;2022-07-11T06:57:03;101335.88;;;22.53
72278;BMP280;61204;49.980;8.358;2022-07-11T06:59:31;101336.59;;;22.54
72278;BMP280;61204;49.980;8.358;2022-07-11T07:01:56;101332.41;;;22.55
72278;BMP280;61204;49.980;8.358;2022-07-11T07:04:23;101339.56;;;22.60
72278;BMP280;61204;49.980;8.358;2022-07-11T07:06:49;101344.63;;;22.65
72278;BMP280;61204;49.980;8.358;2022-07-11T07:09:15;101339.72;;;22.66
72278;BMP280;61204;49.980;8.358;2022-07-11T07:11:41;101339.09;;;22.67
72278;BMP280;61204;49.980;8.358;2022-07-11T07:14:06;101337.75;;;22.68
72278;BMP280;61204;49.980;8.358;2022-07-11T07:16:32;101343.25;;;22.66
72278;BMP280;61204;49.980;8.358;2022-07-11T07:18:57;101346.03;;;22.66
72278;BMP280;61204;49.980;8.358;2022-07-11T07:21:23;101340.31;;;22.62
72278;BMP280;61204;49.980;8.358;2022-07-11T07:23:48;101339.00;;;22.63
72278;BMP280;61204;49.980;8.358;2022-07-11T07:26:14;101341.13;;;22.65
72278;BMP280;61204;49.980;8.358;2022-07-11T07:28:40;101338.38;;;22.67
72278;BMP280;61204;49.980;8.358;2022-07-11T07:31:08;101341.91;;;22.67
72278;BMP280;61204;49.980;8.358;2022-07-11T07:33:36;101350.22;;;22.65
72278;BMP280;61204;49.980;8.358;2022-07-11T07:36:02;101348.13;;;22.66
72278;BMP280;61204;49.980;8.358;2022-07-11T07:38:28;101343.09;;;22.60
72278;BMP280;61204;49.980;8.358;2022-07-11T07:40:53;101338.81;;;22.57
72278;BMP280;61204;49.980;8.358;2022-07-11T07:43:19;101340.19;;;22.58
72278;BMP280;61204;49.980;8.358;2022-07-11T07:45:45;101348.56;;;22.56
72278;BMP280;61204;49.980;8.358;2022-07-11T07:48:10;101344.88;;;22.51
72278;BMP280;61204;49.980;8.358;2022-07-11T07:50:36;101341.22;;;22.45
72278;BMP280;61204;49.980;8.358;2022-07-11T07:53:01;101345.34;;;22.44
72278;BMP280;61204;49.980;8.358;2022-07-11T07:55:27;101344.50;;;22.39
72278;BMP280;61204;49.980;8.358;2022-07-11T07:57:53;101338.91;;;22.39
72278;BMP280;61204;49.980;8.358;2022-07-11T08:00:21;101339.75;;;22.44
72278;BMP280;61204;49.980;8.358;2022-07-11T08:03:05;101339.00;;;22.41
72278;BMP280;61204;49.980;8.358;2022-07-11T08:05:33;101338.28;;;22.41
72278;BMP280;61204;49.980;8.358;2022-07-11T08:07:59;101343.16;;;22.40
72278;BMP280;61204;49.980;8.358;2022-07-11T08:10:25;101348.69;;;22.38
72278;BMP280;61204;49.980;8.358;2022-07-11T08:12:51;101354.88;;;22.35
72278;BMP280;61204;49.980;8.358;2022-07-11T08:15:16;101349.97;;;22.35
72278;BMP280;61204;49.980;8.358;2022-07-11T08:17:42;101353.47;;;22.36
72278;BMP280;61204;49.980;8.358;2022-07-11T08:20:08;101358.31;;;22.33
72278;BMP280;61204;49.980;8.358;2022-07-11T08:22:34;101360.38;;;22.33
72278;BMP280;61204;49.980;8.358;2022-07-11T08:25:00;101353.31;;;22.30
72278;BMP280;61204;49.980;8.358;2022-07-11T08:27:25;101357.44;;;22.29
72278;BMP280;61204;49.980;8.358;2022-07-11T08:29:51;101358.78;;;22.26
72278;BMP280;61204;49.980;8.358;2022-07-11T08:32:17;101360.19;;;22.27
72278;BMP280;61204;49.980;8.358;2022-07-11T08:34:44;101358.03;;;22.25
72278;BMP280;61204;49.980;8.358;2022-07-11T08:37:11;101364.19;;;22.22
72278;BMP280;61204;49.980;8.358;2022-07-11T08:39:37;101359.25;;;22.20
72278;BMP280;61204;49.980;8.358;2022-07-11T08:42:03;101357.91;;;22.21
72278;BMP280;61204;49.980;8.358;2022-07-11T08:44:29;101362.16;;;22.22
72278;BMP280;61204;49.980;8.358;2022-07-11T08:46:56;101356.59;;;22.24
72278;BMP280;61204;49.980;8.358;2022-07-11T08:49:23;101350.28;;;22.24
72278;BMP280;61204;49.980;8.358;2022-07-11T08:51:51;101351.00;;;22.24
72278;BMP280;61204;49.980;8.358;2022-07-11T08:54:17;101355.25;;;22.25
72278;BMP280;61204;49.980;8.358;2022-07-11T08:56:47;101352.44;;;22.25
72278;BMP280;61204;49.980;8.358;2022-07-11T08:59:17;101349.66;;;22.25
72278;BMP280;61204;49.980;8.358;2022-07-11T09:01:49;101351.84;;;22.29
72278;BMP280;61204;49.980;8.358;2022-07-11T09:04:22;101361.03;;;22.31
72278;BMP280;61204;49.980;8.358;2022-07-11T09:06:49;101359.78;;;22.36
72278;BMP280;61204;49.980;8.358;2022-07-11T09:09:14;101357.72;;;22.37
72278;BMP280;61204;49.980;8.358;2022-07-11T09:11:51;101353.47;;;22.36
72278;BMP280;61204;49.980;8.358;2022-07-11T09:14:26;101354.06;;;22.32
72278;BMP280;61204;49.980;8.358;2022-07-11T09:17:03;101350.56;;;22.32
72278;BMP280;61204;49.980;8.358;2022-07-11T09:19:33;101350.56;;;22.32
72278;BMP280;61204;49.980;8.358;2022-07-11T09:22:07;101350.56;;;22.32
72278;BMP280;61204;49.980;8.358;2022-07-11T09:24:59;101354.16;;;22.34
72278;BMP280;61204;49.980;8.358;2022-07-11T09:27:50;101344.50;;;22.39
72278;BMP280;61204;49.980;8.358;2022-07-11T09:33:04;101343.34;;;22.46
72278;BMP280;61204;49.980;8.358;2022-07-11T09:38:12;101339.19;;;22.47
72278;BMP280;61204;49.980;8.358;2022-07-11T09:40:47;101339.38;;;22.54
72278;BMP280;61204;49.980;8.358;2022-07-11T09:43:23;101343.47;;;22.50
72278;BMP280;61204;49.980;8.358;2022-07-11T09:45:50;101330.88;;;22.49
72278;BMP280;61204;49.980;8.358;2022-07-11T09:48:16;101338.56;;;22.49
72278;BMP280;61204;49.980;8.358;2022-07-11T09:50:57;101342.06;;;22.49
72278;BMP280;61204;49.980;8.358;2022-07-11T09:53:31;101326.81;;;22.55
72278;BMP280;61204;49.980;8.358;2022-07-11T09:55:57;101329.81;;;22.61
72278;BMP280;61204;49.980;8.358;2022-07-11T09:58:28;101332.75;;;22.65
72278;BMP280;61204;49.980;8.358;2022-07-11T10:00:55;101332.78;;;22.67
72278;BMP280;61204;49.980;8.358;2022-07-11T10:03:22;101323.75;;;22.68
72278;BMP280;61204;49.980;8.358;2022-07-11T10:05:48;101326.59;;;22.70
72278;BMP280;61204;49.980;8.358;2022-07-11T10:08:14;101321.13;;;22.74
72278;BMP280;61204;49.980;8.358;2022-07-11T10:10:40;101324.00;;;22.76
72278;BMP280;61204;49.980;8.358;2022-07-11T10:13:05;101322.59;;;22.77
72278;BMP280;61204;49.980;8.358;2022-07-11T10:15:34;101326.25;;;22.82
72278;BMP280;61204;49.980;8.358;2022-07-11T10:23:53;101333.53;;;22.91
72278;BMP280;61204;49.980;8.358;2022-07-11T10:26:43;101329.41;;;22.94
72278;BMP280;61204;49.980;8.358;2022-07-11T10:29:22;101333.03;;;22.99
72278;BMP280;61204;49.980;8.358;2022-07-11T10:32:11;101331.72;;;23.02
72278;BMP280;61204;49.980;8.358;2022-07-11T10:34:37;101337.34;;;23.04
72278;BMP280;61204;49.980;8.358;2022-07-11T10:37:05;101326.97;;;23.06
72278;BMP280;61204;49.980;8.358;2022-07-11T10:39:37;101324.16;;;23.06
72278;BMP280;61204;49.980;8.358;2022-07-11T10:42:05;101328.44;;;23.09
72278;BMP280;61204;49.980;8.358;2022-07-11T10:44:54;101334.06;;;23.11
72278;BMP280;61204;49.980;8.358;2022-07-11T10:47:40;101329.16;;;23.10
72278;BMP280;61204;49.980;8.358;2022-07-11T10:50:16;101328.47;;;23.11
72278;BMP280;61204;49.980;8.358;2022-07-11T10:52:49;101332.66;;;23.10
72278;BMP280;61204;49.980;8.358;2022-07-11T10:55:47;101323.50;;;23.08
72278;BMP280;61204;49.980;8.358;2022-07-11T10:58:41;101325.69;;;23.11
72278;BMP280;61204;49.980;8.358;2022-07-11T11:01:10;101321.66;;;23.16
72278;BMP280;61204;49.980;8.358;2022-07-11T11:03:39;101330.88;;;23.21
72278;BMP280;61204;49.980;8.358;2022-07-11T11:06:07;101327.41;;;23.23
72278;BMP280;61204;49.980;8.358;2022-07-11T11:16:41;101314.19;;;23.25
72278;BMP280;61204;49.980;8.358;2022-07-11T11:19:07;101320.56;;;23.28
72278;BMP280;61204;49.980;8.358;2022-07-11T11:22:12;101313.63;;;23.31
72278;BMP280;61204;49.980;8.358;2022-07-11T11:24:41;101311.47;;;23.27
72278;BMP280;61204;49.980;8.358;2022-07-11T11:27:20;101309.41;;;23.30
72278;BMP280;61204;49.980;8.358;2022-07-11T11:29:53;101311.56;;;23.31
72278;BMP280;61204;49.980;8.358;2022-07-11T11:32:22;101317.78;;;23.30
72278;BMP280;61204;49.980;8.358;2022-07-11T11:35:00;101312.19;;;23.30
72278;BMP280;61204;49.980;8.358;2022-07-11T11:37:26;101315.72;;;23.30
72278;BMP280;61204;49.980;8.358;2022-07-11T11:39:58;101319.22;;;23.31
72278;BMP280;61204;49.980;8.358;2022-07-11T11:42:28;101325.63;;;23.33
72278;BMP280;61204;49.980;8.358;2022-07-11T11:44:57;101320.09;;;23.37
72278;BMP280;61204;49.980;8.358;2022-07-11T11:47:32;101319.56;;;23.43
72278;BMP280;61204;49.980;8.358;2022-07-11T11:50:03;101324.47;;;23.42
72278;BMP280;61204;49.980;8.358;2022-07-11T11:52:32;101325.09;;;23.41
72278;BMP280;61204;49.980;8.358;2022-07-11T11:54:58;101321.66;;;23.42
72278;BMP280;61204;49.980;8.358;2022-07-11T11:57:27;101319.59;;;23.45
72278;BMP280;61204;49.980;8.358;2022-07-11T11:59:54;101316.78;;;23.43
72278;BMP280;61204;49.980;8.358;2022-07-11T12:02:27;101323.09;;;23.43
72278;BMP280;61204;49.980;8.358;2022-07-11T12:04:56;101322.41;;;23.45
72278;BMP280;61204;49.980;8.358;2022-07-11T12:07:25;101313.38;;;23.46
72278;BMP280;61204;49.980;8.358;2022-07-11T12:09:54;101319.72;;;23.49
72278;BMP280;61204;49.980;8.358;2022-07-11T12:12:27;101318.38;;;23.50
72278;BMP280;61204;49.980;8.358;2022-07-11T12:15:24;101319.81;;;23.53
72278;BMP280;61204;49.980;8.358;2022-07-11T12:17:53;101319.19;;;23.55
72278;BMP280;61204;49.980;8.358;2022-07-11T12:21:05;101315.78;;;23.58
72278;BMP280;61204;49.980;8.358;2022-07-11T12:23:19;101316.50;;;23.59
72278;BMP280;61204;49.980;8.358;2022-07-11T12:25:47;101310.19;;;23.60
72278;BMP280;61204;49.980;8.358;2022-07-11T12:28:15;101313.72;;;23.61
72278;BMP280;61204;49.980;8.358;2022-07-11T12:30:41;101311.66;;;23.61
72278;BMP280;61204;49.980;8.358;2022-07-11T12:33:11;101315.81;;;23.60
72278;BMP280;61204;49.980;8.358;2022-07-11T12:35:59;101320.78;;;23.62
72278;BMP280;61204;49.980;8.358;2022-07-11T12:38:50;101317.97;;;23.62
72278;BMP280;61204;49.980;8.358;2022-07-11T12:41:16;101313.81;;;23.65
72278;BMP280;61204;49.980;8.358;2022-07-11T12:43:52;101317.38;;;23.67
72278;BMP280;61204;49.980;8.358;2022-07-11T12:46:39;101304.09;;;23.68
72278;BMP280;61204;49.980;8.358;2022-07-11T12:49:08;101306.19;;;23.67
72278;BMP280;61204;49.980;8.358;2022-07-11T12:51:42;101316.09;;;23.70
72278;BMP280;61204;49.980;8.358;2022-07-11T12:54:11;101299.97;;;23.71
72278;BMP280;61204;49.980;8.358;2022-07-11T12:56:52;101300.06;;;23.73
72278;BMP280;61204;49.980;8.358;2022-07-11T12:59:27;101304.19;;;23.72
72278;BMP280;61204;49.980;8.358;2022-07-11T13:01:55;101302.88;;;23.75
72278;BMP280;61204;49.980;8.358;2022-07-11T13:07:33;101301.56;;;23.78
72278;BMP280;61204;49.980;8.358;2022-07-11T13:10:20;101300.28;;;23.83
72278;BMP280;61204;49.980;8.358;2022-07-11T13:12:48;101296.13;;;23.84
72278;BMP280;61204;49.980;8.358;2022-07-11T13:15:21;101294.72;;;23.85
72278;BMP280;61204;49.980;8.358;2022-07-11T13:17:54;101293.34;;;23.84
72278;BMP280;61204;49.980;8.358;2022-07-11T13:20:24;101293.34;;;23.84
72278;BMP280;61204;49.980;8.358;2022-07-11T13:22:52;101294.06;;;23.87
72278;BMP280;61204;49.980;8.358;2022-07-11T13:25:20;101284.31;;;23.88
72278;BMP280;61204;49.980;8.358;2022-07-11T13:27:48;101288.56;;;23.91
72278;BMP280;61204;49.980;8.358;2022-07-11T13:30:16;101298.44;;;23.94
72278;BMP280;61204;49.980;8.358;2022-07-11T13:32:47;101294.28;;;23.95
72278;BMP280;61204;49.980;8.358;2022-07-11T13:35:14;101290.03;;;23.94
72278;BMP280;61204;49.980;8.358;2022-07-11T13:37:40;101287.25;;;23.94
72278;BMP280;61204;49.980;8.358;2022-07-11T13:40:11;101278.91;;;23.96
72278;BMP280;61204;49.980;8.358;2022-07-11T13:42:40;101278.94;;;23.98
72278;BMP280;61204;49.980;8.358;2022-07-11T13:45:12;101271.97;;;23.99
72278;BMP280;61204;49.980;8.358;2022-07-11T13:47:39;101276.19;;;24.00
72278;BMP280;61204;49.980;8.358;2022-07-11T13:50:05;101271.28;;;24.00
72278;BMP280;61204;49.980;8.358;2022-07-11T13:52:31;101274.81;;;24.01
72278;BMP280;61204;49.980;8.358;2022-07-11T13:54:57;101264.22;;;23.97
72278;BMP280;61204;49.980;8.358;2022-07-11T13:57:24;101269.91;;;23.99
72278;BMP280;61204;49.980;8.358;2022-07-11T13:59:50;101265.63;;;23.98
72278;BMP280;61204;49.980;8.358;2022-07-11T14:02:16;101274.13;;;24.02
72278;BMP280;61204;49.980;8.358;2022-07-11T14:04:45;101267.91;;;24.06
72278;BMP280;61204;49.980;8.358;2022-07-11T14:07:11;101267.25;;;24.07
72278;BMP280;61204;49.980;8.358;2022-07-11T14:09:38;101264.44;;;24.07
72278;BMP280;61204;49.980;8.358;2022-07-11T14:12:05;101261.66;;;24.07
72278;BMP280;61204;49.980;8.358;2022-07-11T14:14:32;101265.16;;;24.08
72278;BMP280;61204;49.980;8.358;2022-07-11T14:16:59;101260.31;;;24.10
72278;BMP280;61204;49.980;8.358;2022-07-11T14:19:28;101265.25;;;24.12
72278;BMP280;61204;49.980;8.358;2022-07-11T14:21:56;101261.75;;;24.11
72278;BMP280;61204;49.980;8.358;2022-07-11T14:24:21;101267.41;;;24.13
72278;BMP280;61204;49.980;8.358;2022-07-11T14:26:47;101270.19;;;24.13
72278;BMP280;61204;49.980;8.358;2022-07-11T14:29:14;101261.13;;;24.15